createdAt,value
2022-08-18T00:02:03.704Z,81.08
2022-08-18T00:04:35.771Z,81.24
2022-08-18T00:07:04.843Z,81.03
2022-08-18T00:09:35.822Z,81.04
2022-08-18T00:12:06.872Z,81.00
2022-08-18T00:14:35.171Z,81.03
2022-08-18T00:17:03.034Z,81.67
2022-08-18T00:19:47.409Z,81.73
2022-08-18T00:22:18.794Z,81.72
2022-08-18T00:24:52.467Z,82.07
2022-08-18T00:27:23.125Z,82.17
2022-08-18T00:29:52.372Z,82.29
2022-08-18T00:32:22.969Z,82.32
2022-08-18T00:34:50.994Z,82.69
2022-08-18T00:37:19.065Z,82.63
2022-08-18T00:39:48.368Z,82.79
2022-08-18T00:42:27.664Z,82.83
2022-08-18T00:45:00.998Z,83.14
2022-08-18T00:47:36.393Z,83.35
2022-08-18T00:50:15.056Z,83.43
2022-08-18T00:52:48.019Z,83.56
2022-08-18T00:55:19.408Z,83.88
2022-08-18T00:57:49.728Z,84.00
2022-08-18T01:00:18.123Z,84.33
2022-08-18T01:02:55.532Z,84.06
2022-08-18T01:05:30.441Z,84.01
2022-08-18T01:07:58.407Z,83.92
2022-08-18T01:10:27.853Z,84.13
2022-08-18T01:12:58.528Z,84.31
2022-08-18T01:15:30.454Z,84.25
2022-08-18T01:18:17.573Z,84.24
2022-08-18T01:21:16.034Z,84.17
2022-08-18T01:23:46.678Z,84.32
2022-08-18T01:26:16.761Z,84.60
2022-08-18T01:28:46.491Z,84.37
2022-08-18T01:31:32.426Z,84.24
2022-08-18T01:34:01.139Z,83.91
2022-08-18T01:36:29.832Z,83.34
2022-08-18T01:38:58.979Z,83.83
2022-08-18T01:41:30.267Z,83.80
2022-08-18T01:44:00.137Z,83.75
2022-08-18T01:46:29.552Z,83.99
2022-08-18T01:49:01.226Z,83.92
2022-08-18T01:51:39.327Z,83.94
2022-08-18T01:54:12.821Z,84.11
2022-08-18T01:56:42.365Z,84.36
2022-08-18T01:59:14.612Z,84.43
2022-08-18T02:01:43.366Z,84.12
2022-08-18T02:04:36.148Z,83.85
2022-08-18T02:07:07.665Z,83.82
2022-08-18T02:09:38.402Z,83.75
2022-08-18T02:12:07.994Z,84.24
2022-08-18T02:14:36.799Z,84.05
2022-08-18T02:17:07.698Z,83.63
2022-08-18T02:19:36.699Z,83.63
2022-08-18T02:22:05.987Z,83.57
2022-08-18T02:24:33.729Z,83.64
2022-08-18T02:27:02.882Z,83.82
2022-08-18T02:29:30.642Z,83.76
2022-08-18T02:31:58.519Z,83.57
2022-08-18T02:34:26.563Z,83.49
2022-08-18T02:36:54.622Z,83.45
2022-08-18T02:39:22.507Z,83.86
2022-08-18T02:41:50.336Z,83.87
2022-08-18T02:44:19.563Z,84.00
2022-08-18T02:46:47.390Z,84.20
2022-08-18T02:49:15.163Z,84.57
2022-08-18T02:51:46.263Z,84.52
2022-08-18T02:54:14.093Z,84.78
2022-08-18T02:56:42.637Z,85.03
2022-08-18T02:59:13.344Z,85.45
2022-08-18T03:01:45.939Z,85.89
2022-08-18T03:04:17.556Z,85.90
2022-08-18T03:06:46.350Z,85.93
2022-08-18T03:09:16.690Z,85.86
2022-08-18T03:11:44.856Z,85.78
2022-08-18T03:14:13.452Z,85.93
2022-08-18T03:16:53.667Z,85.56
2022-08-18T03:19:23.783Z,85.09
2022-08-18T03:21:52.786Z,85.22
2022-08-18T03:24:22.742Z,84.92
2022-08-18T03:26:52.944Z,84.88
2022-08-18T03:29:21.513Z,84.80
2022-08-18T03:31:51.490Z,84.83
2022-08-18T03:34:21.392Z,85.15
2022-08-18T03:36:49.904Z,85.25
2022-08-18T03:39:19.118Z,85.36
2022-08-18T03:41:59.458Z,85.56
2022-08-18T03:44:30.750Z,85.47
2022-08-18T03:47:01.469Z,85.41
2022-08-18T03:49:29.656Z,85.22
2022-08-18T03:52:00.066Z,85.50
2022-08-18T03:54:28.505Z,85.53
2022-08-18T03:56:56.308Z,85.55
2022-08-18T03:59:27.035Z,85.60
2022-08-18T04:01:56.329Z,85.34
2022-08-18T04:04:27.597Z,85.32
2022-08-18T04:06:58.450Z,85.57
2022-08-18T04:09:29.294Z,85.74
2022-08-18T04:11:57.976Z,85.63
2022-08-18T04:14:29.714Z,85.93
2022-08-18T04:16:58.491Z,85.84
2022-08-18T04:19:28.262Z,85.84
2022-08-18T04:21:58.188Z,85.91
2022-08-18T04:24:28.011Z,85.79
2022-08-18T04:26:58.327Z,85.86
2022-08-18T04:29:26.133Z,85.65
2022-08-18T04:31:53.911Z,85.83
2022-08-18T04:34:23.437Z,85.75
2022-08-18T04:36:54.575Z,85.83
2022-08-18T04:39:23.455Z,86.05
2022-08-18T04:41:51.945Z,86.36
2022-08-18T04:44:21.617Z,86.06
2022-08-18T04:46:52.779Z,86.04
2022-08-18T04:49:26.114Z,86.15
2022-08-18T04:52:30.983Z,86.34
2022-08-18T04:55:03.635Z,86.59
2022-08-18T04:57:34.842Z,86.84
2022-08-18T05:00:04.125Z,86.98
2022-08-18T05:02:33.026Z,86.65
2022-08-18T05:05:04.099Z,86.56
2022-08-18T05:07:33.675Z,86.75
2022-08-18T05:10:01.692Z,87.01
2022-08-18T05:12:29.720Z,87.00
2022-08-18T05:14:57.968Z,86.98
2022-08-18T05:17:30.576Z,87.01
2022-08-18T05:20:00.047Z,86.69
2022-08-18T05:22:31.019Z,86.71
2022-08-18T05:25:01.038Z,87.19
2022-08-18T05:27:33.304Z,87.15
2022-08-18T05:30:01.197Z,87.69
2022-08-18T05:32:47.662Z,87.94
2022-08-18T05:35:23.226Z,87.73
2022-08-18T05:38:27.977Z,87.54
2022-08-18T05:41:08.619Z,87.24
2022-08-18T05:43:51.381Z,87.47
2022-08-18T05:46:21.944Z,85.03
2022-08-18T05:48:50.035Z,83.18
2022-08-18T05:51:22.886Z,81.13
2022-08-18T05:54:08.032Z,79.66
2022-08-18T05:56:48.901Z,78.36
2022-08-18T05:59:23.685Z,77.29
2022-08-18T06:01:57.646Z,77.09
2022-08-18T06:04:34.339Z,76.80
2022-08-18T06:07:06.516Z,76.65
2022-08-18T06:09:37.310Z,75.86
2022-08-18T06:12:22.632Z,75.66
2022-08-18T06:14:51.071Z,75.56
2022-08-18T06:17:36.811Z,74.96
2022-08-18T06:20:16.179Z,74.19
2022-08-18T06:22:59.617Z,73.55
2022-08-18T06:25:35.778Z,73.55
2022-08-18T06:28:10.969Z,73.33
2022-08-18T06:30:50.063Z,73.08
2022-08-18T06:33:36.049Z,72.81
2022-08-18T06:36:12.635Z,72.38
2022-08-18T06:38:57.828Z,72.42
2022-08-18T06:41:41.688Z,72.51
2022-08-18T06:44:14.833Z,72.39
2022-08-18T06:46:48.178Z,72.36
2022-08-18T06:49:30.169Z,72.48
2022-08-18T06:51:57.987Z,72.29
2022-08-18T06:54:31.332Z,72.25
2022-08-18T06:57:00.117Z,72.50
2022-08-18T06:59:31.612Z,72.00
2022-08-18T07:02:02.635Z,72.61
2022-08-18T07:04:39.889Z,72.69
2022-08-18T07:07:17.290Z,72.01
2022-08-18T07:09:45.398Z,71.30
2022-08-18T07:12:21.897Z,70.59
2022-08-18T07:14:53.042Z,70.33
2022-08-18T07:17:43.100Z,69.79
2022-08-18T07:20:21.391Z,68.83
2022-08-18T07:22:59.899Z,70.00
2022-08-18T07:25:32.075Z,70.38
2022-08-18T07:28:01.985Z,69.85
2022-08-18T07:30:35.978Z,68.77
2022-08-18T07:33:12.188Z,69.18
2022-08-18T07:35:46.018Z,68.95
2022-08-18T07:38:41.952Z,68.35
2022-08-18T07:41:20.210Z,67.57
2022-08-18T07:44:00.731Z,67.03
2022-08-18T07:46:37.613Z,66.48
2022-08-18T07:49:06.408Z,66.68
2022-08-18T07:51:45.968Z,67.14
2022-08-18T07:54:47.834Z,66.49
2022-08-18T07:57:20.070Z,67.19
2022-08-18T07:59:56.329Z,67.25
2022-08-18T08:02:35.436Z,67.09
2022-08-18T08:05:11.999Z,67.57
2022-08-18T08:07:47.196Z,67.79
2022-08-18T08:10:29.745Z,67.99
2022-08-18T08:13:09.282Z,67.85
2022-08-18T08:15:56.204Z,68.14
2022-08-18T08:18:37.932Z,68.05
2022-08-18T08:21:10.916Z,67.18
2022-08-18T08:23:47.597Z,66.03
2022-08-18T08:26:27.912Z,66.04
2022-08-18T08:29:08.953Z,65.85
2022-08-18T08:31:47.061Z,65.25
2022-08-18T08:34:22.175Z,64.48
2022-08-18T08:36:54.939Z,64.93
2022-08-18T08:39:28.712Z,65.22
2022-08-18T08:42:31.459Z,65.45
2022-08-18T08:45:00.971Z,65.00
2022-08-18T08:47:33.910Z,63.80
2022-08-18T08:50:05.736Z,63.37
2022-08-18T08:52:43.415Z,63.98
2022-08-18T08:55:16.616Z,63.83
2022-08-18T08:57:51.513Z,63.24
2022-08-18T09:00:20.083Z,63.41
2022-08-18T09:03:14.695Z,62.87
2022-08-18T09:05:56.769Z,63.17
2022-08-18T09:08:52.012Z,62.29
2022-08-18T09:11:55.206Z,62.27
2022-08-18T09:14:46.401Z,62.37
2022-08-18T09:17:57.800Z,62.38
2022-08-18T09:20:51.211Z,61.75
2022-08-18T09:23:22.049Z,61.09
2022-08-18T09:25:52.445Z,60.18
2022-08-18T09:28:24.791Z,59.84
2022-08-18T09:31:19.892Z,60.15
2022-08-18T09:34:37.378Z,59.71
2022-08-18T09:37:17.453Z,59.85
2022-08-18T09:40:14.572Z,60.07
2022-08-18T09:42:50.365Z,60.47
2022-08-18T09:45:55.338Z,60.34
2022-08-18T09:48:28.284Z,61.49
2022-08-18T09:51:20.767Z,61.39
2022-08-18T09:54:24.876Z,60.95
2022-08-18T09:57:22.420Z,62.11
2022-08-18T10:00:26.532Z,61.88
2022-08-18T10:03:14.088Z,61.65
2022-08-18T10:12:21.623Z,61.88
2022-08-18T10:15:26.978Z,62.13
2022-08-18T10:18:33.269Z,62.47
2022-08-18T10:21:09.782Z,61.73
2022-08-18T10:24:02.708Z,62.13
2022-08-18T10:27:08.203Z,62.21
2022-08-18T10:30:01.843Z,61.64
2022-08-18T10:32:44.388Z,61.30
2022-08-18T10:35:58.793Z,61.03
2022-08-18T10:38:37.165Z,60.56
2022-08-18T10:41:15.739Z,60.44
2022-08-18T10:43:55.846Z,59.51
2022-08-18T10:46:31.915Z,59.98
2022-08-18T10:49:09.366Z,60.60
2022-08-18T10:52:01.418Z,60.45
2022-08-18T10:54:51.659Z,59.71
2022-08-18T10:57:30.550Z,59.51
2022-08-18T11:00:04.034Z,59.91
2022-08-18T11:03:02.602Z,59.34
2022-08-18T11:05:43.179Z,59.92
2022-08-18T11:08:17.798Z,59.72
2022-08-18T11:11:27.621Z,58.35
2022-08-18T11:13:50.790Z,59.12
2022-08-18T11:16:31.876Z,58.61
2022-08-18T11:19:18.185Z,56.72
2022-08-18T11:21:51.427Z,56.91
2022-08-18T11:24:25.058Z,56.41
2022-08-18T11:26:55.020Z,55.88
2022-08-18T11:29:33.191Z,55.44
2022-08-18T11:32:11.056Z,56.60
2022-08-18T11:37:51.305Z,56.05
2022-08-18T11:41:08.802Z,56.46
2022-08-18T11:43:30.022Z,56.94
2022-08-18T11:46:16.602Z,56.43
2022-08-18T11:48:52.891Z,55.89
2022-08-18T11:51:27.336Z,55.10
2022-08-18T11:54:00.119Z,54.16
2022-08-18T11:56:32.345Z,54.63
2022-08-18T11:59:06.210Z,53.38
2022-08-18T12:01:42.262Z,54.09
2022-08-18T12:04:22.717Z,53.62
2022-08-18T12:06:59.683Z,53.75
2022-08-18T12:10:17.044Z,52.80
2022-08-18T12:12:28.217Z,52.17
2022-08-18T12:17:52.167Z,51.89
2022-08-18T12:20:20.859Z,52.34
2022-08-18T12:22:50.446Z,52.50
2022-08-18T12:25:24.492Z,52.10
2022-08-18T12:27:52.885Z,51.95
2022-08-18T12:30:20.783Z,52.29
2022-08-18T12:35:36.420Z,51.97
2022-08-18T12:38:14.016Z,52.08
2022-08-18T12:40:42.826Z,51.61
2022-08-18T12:43:10.767Z,50.84
2022-08-18T12:45:39.236Z,50.32
2022-08-18T12:48:08.092Z,51.16
2022-08-18T12:53:30.507Z,49.35
2022-08-18T12:58:55.514Z,50.19
2022-08-18T13:01:25.008Z,50.26
2022-08-18T13:07:00.097Z,50.11
2022-08-18T13:09:48.008Z,49.55
2022-08-18T13:12:19.932Z,49.03
2022-08-18T13:14:49.828Z,49.06
2022-08-18T13:17:32.861Z,48.35
2022-08-18T13:20:05.162Z,48.07
2022-08-18T13:22:33.511Z,48.30
2022-08-18T13:25:05.255Z,48.01
2022-08-18T13:27:35.697Z,47.59
2022-08-18T13:30:29.635Z,48.36
2022-08-18T13:33:00.251Z,47.79
2022-08-18T13:35:38.396Z,47.48
2022-08-18T13:38:18.914Z,47.28
2022-08-18T13:40:51.823Z,48.07
2022-08-18T13:43:25.914Z,46.92
2022-08-18T13:45:56.302Z,46.91
2022-08-18T13:48:25.538Z,47.59
2022-08-18T13:50:55.698Z,47.56
2022-08-18T13:53:26.321Z,47.32
2022-08-18T13:55:59.723Z,47.35
2022-08-18T13:58:29.009Z,47.78
2022-08-18T14:03:48.223Z,48.16
2022-08-18T14:06:22.194Z,48.30
2022-08-18T14:08:51.520Z,48.48
2022-08-18T14:11:23.666Z,48.13
2022-08-18T14:13:54.156Z,47.40
2022-08-18T14:16:22.926Z,47.34
2022-08-18T14:19:12.889Z,47.43
2022-08-18T14:22:02.998Z,46.44
2022-08-18T14:24:52.186Z,46.49
2022-08-18T14:31:11.486Z,46.52
2022-08-18T14:33:50.480Z,46.82
2022-08-18T14:36:20.554Z,46.69
2022-08-18T14:38:58.290Z,46.18
2022-08-18T14:41:27.362Z,46.35
2022-08-18T14:44:12.554Z,46.35
2022-08-18T14:46:42.030Z,45.87
2022-08-18T14:49:28.123Z,46.14
2022-08-18T14:51:57.313Z,46.29
2022-08-18T14:54:28.328Z,45.88
2022-08-18T14:56:57.447Z,46.21
2022-08-18T14:59:28.402Z,45.89
2022-08-18T15:01:56.202Z,45.86
2022-08-18T15:04:24.170Z,45.51
2022-08-18T15:06:56.069Z,44.98
2022-08-18T15:09:26.946Z,45.26
2022-08-18T15:11:56.737Z,45.17
2022-08-18T15:14:33.166Z,45.25
2022-08-18T15:17:02.843Z,44.36
2022-08-18T15:20:01.575Z,44.55
2022-08-18T15:22:35.929Z,44.86
2022-08-18T15:25:24.188Z,45.10
2022-08-18T15:27:53.003Z,44.91
2022-08-18T15:30:22.930Z,44.96
2022-08-18T15:32:51.267Z,44.65
2022-08-18T15:35:20.427Z,44.73
2022-08-18T15:37:51.430Z,44.51
2022-08-18T15:40:31.169Z,44.79
2022-08-18T15:43:09.757Z,45.04
2022-08-18T15:45:56.043Z,44.74
2022-08-18T15:48:27.103Z,44.70
2022-08-18T15:50:56.147Z,45.19
2022-08-18T15:53:29.769Z,44.81
2022-08-18T15:55:58.398Z,44.27
2022-08-18T15:58:31.998Z,44.89
2022-08-18T16:01:01.457Z,45.14
2022-08-18T16:03:50.011Z,45.08
2022-08-18T16:06:23.603Z,44.91
2022-08-18T16:08:55.856Z,44.93
2022-08-18T16:11:29.018Z,44.95
2022-08-18T16:13:59.169Z,44.13
2022-08-18T16:16:36.157Z,44.59
2022-08-18T16:19:05.845Z,44.35
2022-08-18T16:21:34.064Z,44.46
2022-08-18T16:24:01.794Z,44.09
2022-08-18T16:26:30.149Z,44.50
2022-08-18T16:29:01.300Z,44.31
2022-08-18T16:31:37.038Z,44.26
2022-08-18T16:34:05.822Z,44.59
2022-08-18T16:36:33.545Z,44.41
2022-08-18T16:39:26.028Z,44.19
2022-08-18T16:41:53.783Z,44.37
2022-08-18T16:44:21.664Z,44.74
2022-08-18T16:46:51.733Z,45.00
2022-08-18T16:49:20.800Z,45.00
2022-08-18T16:51:48.535Z,45.37
2022-08-18T16:54:16.397Z,45.77
2022-08-18T16:56:44.150Z,45.47
2022-08-18T17:02:20.029Z,46.36
2022-08-18T17:04:47.862Z,46.95
2022-08-18T17:07:15.632Z,47.18
2022-08-18T17:09:43.407Z,47.28
2022-08-18T17:12:11.305Z,47.29
2022-08-18T17:14:39.250Z,47.71
2022-08-18T17:17:10.427Z,47.61
2022-08-18T17:19:38.370Z,47.71
2022-08-18T17:22:08.103Z,48.10
2022-08-18T17:24:35.954Z,48.09
2022-08-18T17:27:25.842Z,48.29
2022-08-18T17:30:02.564Z,48.60
2022-08-18T17:35:15.900Z,48.82
2022-08-18T17:37:49.250Z,49.00
2022-08-18T17:40:21.602Z,49.49
2022-08-18T17:42:51.508Z,49.56
2022-08-18T17:45:21.939Z,49.36
2022-08-18T17:47:57.626Z,50.19
2022-08-18T17:50:46.730Z,50.26
2022-08-18T17:53:15.533Z,50.34
2022-08-18T17:55:48.353Z,50.15
2022-08-18T17:58:21.764Z,50.69
2022-08-18T18:00:49.549Z,50.39
2022-08-18T18:03:18.714Z,50.66
2022-08-18T18:05:54.182Z,50.78
2022-08-18T18:08:22.040Z,50.54
2022-08-18T18:11:07.640Z,51.20
2022-08-18T18:13:35.526Z,51.46
2022-08-18T18:16:21.690Z,51.58
2022-08-18T18:18:59.943Z,51.74
2022-08-18T18:21:55.368Z,51.97
2022-08-18T18:24:24.043Z,52.08
2022-08-18T18:26:53.192Z,52.02
2022-08-18T18:29:27.252Z,51.98
2022-08-18T18:32:00.482Z,51.83
2022-08-18T18:34:33.786Z,52.17
2022-08-18T18:37:03.092Z,51.79
2022-08-18T18:39:34.199Z,52.37
2022-08-18T18:42:20.464Z,52.24
2022-08-18T18:44:53.790Z,52.33
2022-08-18T18:47:39.977Z,52.57
2022-08-18T18:50:17.144Z,52.81
2022-08-18T18:52:52.429Z,52.80
2022-08-18T18:55:25.657Z,53.07
2022-08-18T18:58:07.999Z,53.16
2022-08-18T19:00:44.623Z,53.35
2022-08-18T19:03:28.556Z,53.24
2022-08-18T19:06:14.024Z,53.54
2022-08-18T19:08:50.876Z,54.22
2022-08-18T19:11:29.079Z,54.25
2022-08-18T19:14:07.529Z,54.47
2022-08-18T19:16:42.407Z,54.52
2022-08-18T19:19:36.729Z,54.48
2022-08-18T19:22:18.609Z,54.66
2022-08-18T19:24:56.109Z,54.54
2022-08-18T19:27:34.256Z,54.95
2022-08-18T19:30:06.961Z,54.94
2022-08-18T19:32:40.756Z,55.00
2022-08-18T19:35:12.824Z,55.19
2022-08-18T19:37:55.212Z,55.50
2022-08-18T19:40:25.669Z,56.05
2022-08-18T19:42:59.992Z,55.96
2022-08-18T19:45:35.506Z,56.15
2022-08-18T19:48:08.825Z,56.31
2022-08-18T19:50:43.419Z,56.25
2022-08-18T19:53:26.003Z,56.34
2022-08-18T19:56:29.433Z,56.56
2022-08-18T19:59:19.390Z,56.62
2022-08-18T20:02:04.994Z,56.68
2022-08-18T20:04:59.175Z,56.66
2022-08-18T20:08:03.173Z,56.83
2022-08-18T20:10:43.840Z,56.91
2022-08-18T20:13:33.851Z,57.14
2022-08-18T20:16:43.556Z,57.41
2022-08-18T20:19:39.590Z,57.67
2022-08-18T20:22:10.460Z,57.60
2022-08-18T20:24:52.127Z,57.80
2022-08-18T20:27:36.403Z,58.17
2022-08-18T20:30:32.502Z,58.56
2022-08-18T20:33:12.437Z,58.31
2022-08-18T20:35:45.784Z,58.48
2022-08-18T20:38:54.364Z,58.50
2022-08-18T20:41:38.109Z,58.88
2022-08-18T20:44:40.318Z,58.65
2022-08-18T20:47:23.875Z,58.95
2022-08-18T20:50:12.621Z,59.18
2022-08-18T20:52:46.685Z,59.26
2022-08-18T20:55:26.514Z,59.53
2022-08-18T20:58:03.599Z,59.41
2022-08-18T21:00:33.149Z,59.61
2022-08-18T21:03:06.497Z,59.77
2022-08-18T21:05:40.540Z,60.01
2022-08-18T21:08:27.575Z,60.01
2022-08-18T21:10:57.860Z,60.21
2022-08-18T21:13:31.021Z,60.38
2022-08-18T21:15:59.843Z,60.39
2022-08-18T21:18:28.379Z,60.50
2022-08-18T21:20:59.501Z,60.93
2022-08-18T21:23:30.710Z,60.46
2022-08-18T21:26:06.606Z,60.86
2022-08-18T21:28:38.864Z,60.66
2022-08-18T21:31:42.727Z,61.01
2022-08-18T21:33:59.102Z,61.19
2022-08-18T21:36:32.415Z,61.48
2022-08-18T21:39:05.659Z,61.59
2022-08-18T21:41:35.062Z,61.77
2022-08-18T21:44:06.737Z,62.00
2022-08-18T21:46:34.969Z,62.04
2022-08-18T21:49:07.565Z,62.24
2022-08-18T21:51:47.382Z,62.57
2022-08-18T21:54:17.396Z,62.59
2022-08-18T21:56:45.801Z,62.67
2022-08-18T21:59:15.877Z,62.64
2022-08-18T22:01:53.090Z,62.76
2022-08-18T22:04:27.171Z,63.24
2022-08-18T22:06:58.890Z,63.44
2022-08-18T22:09:48.911Z,63.42
2022-08-18T22:12:48.264Z,63.51
2022-08-18T22:15:20.133Z,64.10
2022-08-18T22:17:54.977Z,64.51
2022-08-18T22:20:57.206Z,64.89
2022-08-18T22:23:55.717Z,64.69
2022-08-18T22:26:27.171Z,65.00
2022-08-18T22:28:59.252Z,65.16
2022-08-18T22:31:30.844Z,65.32
2022-08-18T22:34:03.097Z,65.49
2022-08-18T22:36:33.576Z,65.81
2022-08-18T22:39:02.902Z,65.78
2022-08-18T22:41:32.122Z,66.08
2022-08-18T22:44:00.768Z,66.13
2022-08-18T22:46:29.045Z,66.13
2022-08-18T22:48:56.741Z,66.52
2022-08-18T22:51:27.590Z,66.35
2022-08-18T22:53:56.768Z,66.41
2022-08-18T22:56:35.114Z,66.39
2022-08-18T22:59:13.783Z,66.72
2022-08-18T23:01:48.100Z,66.93
2022-08-18T23:04:17.740Z,67.16
2022-08-18T23:06:51.524Z,67.05
2022-08-18T23:09:24.239Z,67.41
2022-08-18T23:11:54.994Z,67.59
2022-08-18T23:14:23.301Z,67.72
2022-08-18T23:16:51.618Z,67.95
2022-08-18T23:19:21.483Z,68.21
2022-08-18T23:21:49.864Z,68.31
2022-08-18T23:24:18.875Z,68.48
2022-08-18T23:26:47.252Z,68.61
2022-08-18T23:29:16.416Z,68.72
2022-08-18T23:31:46.280Z,69.17
2022-08-18T23:34:17.425Z,69.18
2022-08-18T23:36:46.898Z,69.17
2022-08-18T23:39:15.216Z,69.57
2022-08-18T23:41:42.996Z,69.65
2022-08-18T23:44:11.446Z,69.58
2022-08-18T23:46:40.543Z,69.64
2022-08-18T23:49:10.765Z,69.75
2022-08-18T23:51:42.603Z,69.74
2022-08-18T23:54:13.500Z,69.91
2022-08-18T23:56:41.564Z,70.11
2022-08-18T23:59:09.780Z,70.37
